sensor_id;sensor_type;location;lat;lon;timestamp;temperature;humidity
19214;DHT22;9741;51.020;5.304;2023-06-10T00:00:30;22.60;42.80
19214;DHT22;9741;51.020;5.304;2023-06-10T00:02:57;22.50;42.90
19214;DHT22;9741;51.020;5.304;2023-06-10T00:05:24;22.40;43.00
19214;DHT22;9741;51.020;5.304;2023-06-10T00:07:55;22.40;43.10
19214;DHT22;9741;51.020;5.304;2023-06-10T00:10:23;22.30;43.20
19214;DHT22;9741;51.020;5.304;2023-06-10T00:12:50;22.30;43.40
19214;DHT22;9741;51.020;5.304;2023-06-10T00:15:18;22.20;43.50
19214;DHT22;9741;51.020;5.304;2023-06-10T00:17:45;22.20;43.80
19214;DHT22;9741;51.020;5.304;2023-06-10T00:20:13;22.10;43.90
19214;DHT22;9741;51.020;5.304;2023-06-10T00:22:40;22.00;43.90
19214;DHT22;9741;51.020;5.304;2023-06-10T00:25:11;22.00;44.10
19214;DHT22;9741;51.020;5.304;2023-06-10T00:27:38;21.90;44.10
19214;DHT22;9741;51.020;5.304;2023-06-10T00:30:07;21.90;44.30
19214;DHT22;9741;51.020;5.304;2023-06-10T00:32:36;21.90;44.50
19214;DHT22;9741;51.020;5.304;2023-06-10T00:35:03;21.80;44.50
19214;DHT22;9741;51.020;5.304;2023-06-10T00:37:31;21.70;44.60
19214;DHT22;9741;51.020;5.304;2023-06-10T00:40:00;21.70;44.70
19214;DHT22;9741;51.020;5.304;2023-06-10T00:42:27;21.70;44.90
19214;DHT22;9741;51.020;5.304;2023-06-10T00:44:55;21.60;44.90
19214;DHT22;9741;51.020;5.304;2023-06-10T00:47:22;21.60;45.10
19214;DHT22;9741;51.020;5.304;2023-06-10T00:49:51;21.50;45.10
19214;DHT22;9741;51.020;5.304;2023-06-10T00:52:18;21.50;45.30
19214;DHT22;9741;51.020;5.304;2023-06-10T00:54:46;21.40;45.30
19214;DHT22;9741;51.020;5.304;2023-06-10T00:57:13;21.40;45.40
19214;DHT22;9741;51.020;5.304;2023-06-10T00:59:41;21.40;45.60
19214;DHT22;9741;51.020;5.304;2023-06-10T01:02:08;21.40;45.70
19214;DHT22;9741;51.020;5.304;2023-06-10T01:04:36;21.30;45.70
19214;DHT22;9741;51.020;5.304;2023-06-10T01:07:12;21.30;45.90
19214;DHT22;9741;51.020;5.304;2023-06-10T01:09:48;21.30;46.00
19214;DHT22;9741;51.020;5.304;2023-06-10T01:12:19;21.20;46.10
19214;DHT22;9741;51.020;5.304;2023-06-10T01:14:47;21.20;46.20
19214;DHT22;9741;51.020;5.304;2023-06-10T01:17:17;21.10;46.20
19214;DHT22;9741;51.020;5.304;2023-06-10T01:19:44;21.10;46.30
19214;DHT22;9741;51.020;5.304;2023-06-10T01:22:22;21.10;46.40
19214;DHT22;9741;51.020;5.304;2023-06-10T01:24:50;21.00;46.50
19214;DHT22;9741;51.020;5.304;2023-06-10T01:27:19;21.00;46.60
19214;DHT22;9741;51.020;5.304;2023-06-10T01:29:53;21.00;46.70
19214;DHT22;9741;51.020;5.304;2023-06-10T01:32:28;21.00;46.80
19214;DHT22;9741;51.020;5.304;2023-06-10T01:34:57;20.90;46.80
19214;DHT22;9741;51.020;5.304;2023-06-10T01:37:26;21.00;47.00
19214;DHT22;9741;51.020;5.304;2023-06-10T01:39:56;20.90;47.10
19214;DHT22;9741;51.020;5.304;2023-06-10T01:42:24;20.90;47.10
19214;DHT22;9741;51.020;5.304;2023-06-10T01:44:52;20.80;47.20
19214;DHT22;9741;51.020;5.304;2023-06-10T01:47:19;20.80;47.30
19214;DHT22;9741;51.020;5.304;2023-06-10T01:49:46;20.80;47.40
19214;DHT22;9741;51.020;5.304;2023-06-10T01:52:14;20.80;47.50
19214;DHT22;9741;51.020;5.304;2023-06-10T01:54:42;20.80;47.60
19214;DHT22;9741;51.020;5.304;2023-06-10T01:57:10;20.70;47.60
19214;DHT22;9741;51.020;5.304;2023-06-10T01:59:37;20.70;47.60
19214;DHT22;9741;51.020;5.304;2023-06-10T02:02:05;20.70;47.70
19214;DHT22;9741;51.020;5.304;2023-06-10T02:04:32;20.70;47.80
19214;DHT22;9741;51.020;5.304;2023-06-10T02:06:59;20.70;47.80
19214;DHT22;9741;51.020;5.304;2023-06-10T02:09:30;20.60;47.80
19214;DHT22;9741;51.020;5.304;2023-06-10T02:11:58;20.60;47.90
19214;DHT22;9741;51.020;5.304;2023-06-10T02:14:25;20.60;48.00
19214;DHT22;9741;51.020;5.304;2023-06-10T02:16:52;20.60;48.10
19214;DHT22;9741;51.020;5.304;2023-06-10T02:19:22;20.60;48.10
19214;DHT22;9741;51.020;5.304;2023-06-10T02:21:50;20.60;48.10
19214;DHT22;9741;51.020;5.304;2023-06-10T02:24:17;20.60;48.20
19214;DHT22;9741;51.020;5.304;2023-06-10T02:26:45;20.50;48.20
19214;DHT22;9741;51.020;5.304;2023-06-10T02:29:14;20.50;48.20
19214;DHT22;9741;51.020;5.304;2023-06-10T02:31:42;20.50;48.30
19214;DHT22;9741;51.020;5.304;2023-06-10T02:34:09;20.50;48.50
19214;DHT22;9741;51.020;5.304;2023-06-10T02:36:36;20.40;48.40
19214;DHT22;9741;51.020;5.304;2023-06-10T02:39:03;20.40;48.50
19214;DHT22;9741;51.020;5.304;2023-06-10T02:41:30;20.30;48.60
19214;DHT22;9741;51.020;5.304;2023-06-10T02:43:57;20.30;48.60
19214;DHT22;9741;51.020;5.304;2023-06-10T02:46:26;20.30;48.80
19214;DHT22;9741;51.020;5.304;2023-06-10T02:48:54;20.30;48.80
19214;DHT22;9741;51.020;5.304;2023-06-10T02:51:21;20.30;48.90
19214;DHT22;9741;51.020;5.304;2023-06-10T02:53:48;20.20;48.90
19214;DHT22;9741;51.020;5.304;2023-06-10T02:56:16;20.20;48.90
19214;DHT22;9741;51.020;5.304;2023-06-10T02:58:43;20.20;49.00
19214;DHT22;9741;51.020;5.304;2023-06-10T03:01:11;20.20;49.00
19214;DHT22;9741;51.020;5.304;2023-06-10T03:03:40;20.20;49.10
19214;DHT22;9741;51.020;5.304;2023-06-10T03:06:09;20.20;49.10
19214;DHT22;9741;51.020;5.304;2023-06-10T03:08:38;20.20;49.20
19214;DHT22;9741;51.020;5.304;2023-06-10T03:11:05;20.20;49.20
19214;DHT22;9741;51.020;5.304;2023-06-10T03:13:32;20.20;49.20
19214;DHT22;9741;51.020;5.304;2023-06-10T03:15:59;20.20;49.30
19214;DHT22;9741;51.020;5.304;2023-06-10T03:18:28;20.20;49.40
19214;DHT22;9741;51.020;5.304;2023-06-10T03:20:57;20.20;49.40
19214;DHT22;9741;51.020;5.304;2023-06-10T03:23:24;20.20;49.40
19214;DHT22;9741;51.020;5.304;2023-06-10T03:25:52;20.20;49.50
19214;DHT22;9741;51.020;5.304;2023-06-10T03:28:20;20.10;49.40
19214;DHT22;9741;51.020;5.304;2023-06-10T03:30:48;20.10;49.40
19214;DHT22;9741;51.020;5.304;2023-06-10T03:33:15;20.20;49.50
19214;DHT22;9741;51.020;5.304;2023-06-10T03:35:42;20.10;49.50
19214;DHT22;9741;51.020;5.304;2023-06-10T03:38:10;20.10;49.50
19214;DHT22;9741;51.020;5.304;2023-06-10T03:40:38;20.10;49.50
19214;DHT22;9741;51.020;5.304;2023-06-10T03:43:05;20.10;49.60
19214;DHT22;9741;51.020;5.304;2023-06-10T03:45:36;20.10;49.60
19214;DHT22;9741;51.020;5.304;2023-06-10T03:48:04;20.20;49.70
19214;DHT22;9741;51.020;5.304;2023-06-10T03:50:31;20.20;49.70
19214;DHT22;9741;51.020;5.304;2023-06-10T03:52:59;20.20;49.70
19214;DHT22;9741;51.020;5.304;2023-06-10T03:55:27;20.20;49.70
19214;DHT22;9741;51.020;5.304;2023-06-10T03:57:56;20.20;49.70
19214;DHT22;9741;51.020;5.304;2023-06-10T04:00:23;20.20;49.70
19214;DHT22;9741;51.020;5.304;2023-06-10T04:02:51;20.30;49.70
19214;DHT22;9741;51.020;5.304;2023-06-10T04:05:19;20.30;49.70
19214;DHT22;9741;51.020;5.304;2023-06-10T04:07:48;20.40;49.80
19214;DHT22;9741;51.020;5.304;2023-06-10T04:10:19;20.40;49.70
19214;DHT22;9741;51.020;5.304;2023-06-10T04:12:47;20.40;49.70
19214;DHT22;9741;51.020;5.304;2023-06-10T04:15:14;20.50;49.70
19214;DHT22;9741;51.020;5.304;2023-06-10T04:17:41;20.50;49.60
19214;DHT22;9741;51.020;5.304;2023-06-10T04:20:09;20.50;49.60
19214;DHT22;9741;51.020;5.304;2023-06-10T04:22:36;20.60;49.70
19214;DHT22;9741;51.020;5.304;2023-06-10T04:25:03;20.60;49.60
19214;DHT22;9741;51.020;5.304;2023-06-10T04:27:30;20.70;49.60
19214;DHT22;9741;51.020;5.304;2023-06-10T04:29:59;20.70;49.50
19214;DHT22;9741;51.020;5.304;2023-06-10T04:32:26;20.80;49.60
19214;DHT22;9741;51.020;5.304;2023-06-10T04:34:53;20.90;49.60
19214;DHT22;9741;51.020;5.304;2023-06-10T04:37:20;20.90;49.50
19214;DHT22;9741;51.020;5.304;2023-06-10T04:39:47;21.00;49.50
19214;DHT22;9741;51.020;5.304;2023-06-10T04:42:14;21.00;49.50
19214;DHT22;9741;51.020;5.304;2023-06-10T04:44:41;21.20;49.50
19214;DHT22;9741;51.020;5.304;2023-06-10T04:47:10;21.70;50.00
19214;DHT22;9741;51.020;5.304;2023-06-10T04:49:37;22.40;49.80
19214;DHT22;9741;51.020;5.304;2023-06-10T04:52:05;23.30;49.40
19214;DHT22;9741;51.020;5.304;2023-06-10T04:54:32;24.20;48.80
19214;DHT22;9741;51.020;5.304;2023-06-10T04:56:59;25.20;48.00
19214;DHT22;9741;51.020;5.304;2023-06-10T04:59:26;26.00;47.00
19214;DHT22;9741;51.020;5.304;2023-06-10T05:01:53;26.90;46.10
19214;DHT22;9741;51.020;5.304;2023-06-10T05:04:22;27.70;45.10
19214;DHT22;9741;51.020;5.304;2023-06-10T05:06:49;28.50;44.20
19214;DHT22;9741;51.020;5.304;2023-06-10T05:09:16;29.20;43.30
19214;DHT22;9741;51.020;5.304;2023-06-10T05:11:43;29.80;42.30
19214;DHT22;9741;51.020;5.304;2023-06-10T05:14:10;30.50;41.60
19214;DHT22;9741;51.020;5.304;2023-06-10T05:16:37;31.10;40.80
19214;DHT22;9741;51.020;5.304;2023-06-10T05:19:05;31.80;40.00
19214;DHT22;9741;51.020;5.304;2023-06-10T05:21:33;32.40;39.20
19214;DHT22;9741;51.020;5.304;2023-06-10T05:24:00;33.00;38.40
19214;DHT22;9741;51.020;5.304;2023-06-10T05:26:28;33.50;37.80
19214;DHT22;9741;51.020;5.304;2023-06-10T05:28:57;34.00;37.20
19214;DHT22;9741;51.020;5.304;2023-06-10T05:31:24;34.50;36.50
19214;DHT22;9741;51.020;5.304;2023-06-10T05:33:51;35.00;35.70
19214;DHT22;9741;51.020;5.304;2023-06-10T05:36:19;35.50;35.10
19214;DHT22;9741;51.020;5.304;2023-06-10T05:38:48;35.90;34.60
19214;DHT22;9741;51.020;5.304;2023-06-10T05:41:16;36.40;33.90
19214;DHT22;9741;51.020;5.304;2023-06-10T05:43:43;36.80;33.30
19214;DHT22;9741;51.020;5.304;2023-06-10T05:46:14;37.20;32.70
19214;DHT22;9741;51.020;5.304;2023-06-10T05:48:41;37.60;32.00
19214;DHT22;9741;51.020;5.304;2023-06-10T05:51:08;38.00;31.70
19214;DHT22;9741;51.020;5.304;2023-06-10T05:53:38;38.40;31.20
19214;DHT22;9741;51.020;5.304;2023-06-10T05:56:07;38.90;30.80
19214;DHT22;9741;51.020;5.304;2023-06-10T05:58:34;39.30;30.20
19214;DHT22;9741;51.020;5.304;2023-06-10T06:01:01;39.60;29.90
19214;DHT22;9741;51.020;5.304;2023-06-10T06:03:29;40.00;29.60
19214;DHT22;9741;51.020;5.304;2023-06-10T06:05:56;40.30;29.30
19214;DHT22;9741;51.020;5.304;2023-06-10T06:08:23;40.50;29.00
19214;DHT22;9741;51.020;5.304;2023-06-10T06:10:50;40.70;28.70
19214;DHT22;9741;51.020;5.304;2023-06-10T06:13:19;40.90;28.50
19214;DHT22;9741;51.020;5.304;2023-06-10T06:15:46;41.10;28.10
19214;DHT22;9741;51.020;5.304;2023-06-10T06:18:13;41.20;27.90
19214;DHT22;9741;51.020;5.304;2023-06-10T06:20:41;41.30;27.70
19214;DHT22;9741;51.020;5.304;2023-06-10T06:23:08;41.30;27.50
19214;DHT22;9741;51.020;5.304;2023-06-10T06:25:38;41.30;27.50
19214;DHT22;9741;51.020;5.304;2023-06-10T06:28:06;41.40;27.30
19214;DHT22;9741;51.020;5.304;2023-06-10T06:30:34;41.60;27.20
19214;DHT22;9741;51.020;5.304;2023-06-10T06:33:03;41.70;27.00
19214;DHT22;9741;51.020;5.304;2023-06-10T06:35:32;42.00;26.80
19214;DHT22;9741;51.020;5.304;2023-06-10T06:37:59;42.40;26.60
19214;DHT22;9741;51.020;5.304;2023-06-10T06:40:26;42.60;26.40
19214;DHT22;9741;51.020;5.304;2023-06-10T06:42:53;42.90;26.20
19214;DHT22;9741;51.020;5.304;2023-06-10T06:45:21;43.10;26.00
19214;DHT22;9741;51.020;5.304;2023-06-10T06:47:49;43.30;25.90
19214;DHT22;9741;51.020;5.304;2023-06-10T06:50:17;43.40;25.70
19214;DHT22;9741;51.020;5.304;2023-06-10T06:52:44;43.60;25.70
19214;DHT22;9741;51.020;5.304;2023-06-10T06:55:11;43.80;25.50
19214;DHT22;9741;51.020;5.304;2023-06-10T06:57:38;44.00;25.40
19214;DHT22;9741;51.020;5.304;2023-06-10T07:00:06;44.20;25.10
19214;DHT22;9741;51.020;5.304;2023-06-10T07:02:35;44.30;24.90
19214;DHT22;9741;51.020;5.304;2023-06-10T07:05:03;44.30;24.70
19214;DHT22;9741;51.020;5.304;2023-06-10T07:07:31;44.40;24.50
19214;DHT22;9741;51.020;5.304;2023-06-10T07:09:58;44.50;24.30
19214;DHT22;9741;51.020;5.304;2023-06-10T07:12:25;44.40;24.20
19214;DHT22;9741;51.020;5.304;2023-06-10T07:14:55;44.50;24.20
19214;DHT22;9741;51.020;5.304;2023-06-10T07:17:22;44.60;24.00
19214;DHT22;9741;51.020;5.304;2023-06-10T07:19:49;44.70;23.90
19214;DHT22;9741;51.020;5.304;2023-06-10T07:22:18;44.90;23.90
19214;DHT22;9741;51.020;5.304;2023-06-10T07:24:45;45.00;23.70
19214;DHT22;9741;51.020;5.304;2023-06-10T07:27:12;45.00;23.70
19214;DHT22;9741;51.020;5.304;2023-06-10T07:29:44;45.20;23.70
19214;DHT22;9741;51.020;5.304;2023-06-10T07:32:13;45.30;23.50
19214;DHT22;9741;51.020;5.304;2023-06-10T07:34:43;45.50;23.40
19214;DHT22;9741;51.020;5.304;2023-06-10T07:37:10;45.60;23.30
19214;DHT22;9741;51.020;5.304;2023-06-10T07:39:42;45.50;23.20
19214;DHT22;9741;51.020;5.304;2023-06-10T07:42:09;45.60;23.20
19214;DHT22;9741;51.020;5.304;2023-06-10T07:44:36;45.60;23.10
19214;DHT22;9741;51.020;5.304;2023-06-10T07:47:04;45.70;23.00
19214;DHT22;9741;51.020;5.304;2023-06-10T07:49:31;45.80;23.00
19214;DHT22;9741;51.020;5.304;2023-06-10T07:51:58;45.80;22.90
19214;DHT22;9741;51.020;5.304;2023-06-10T07:54:28;45.60;22.90
19214;DHT22;9741;51.020;5.304;2023-06-10T07:56:57;45.30;22.90
19214;DHT22;9741;51.020;5.304;2023-06-10T07:59:24;44.90;22.80
19214;DHT22;9741;51.020;5.304;2023-06-10T08:01:52;44.20;22.90
19214;DHT22;9741;51.020;5.304;2023-06-10T08:04:20;43.50;23.10
19214;DHT22;9741;51.020;5.304;2023-06-10T08:06:47;42.70;23.30
19214;DHT22;9741;51.020;5.304;2023-06-10T08:09:14;41.80;23.60
19214;DHT22;9741;51.020;5.304;2023-06-10T08:11:41;40.90;24.00
19214;DHT22;9741;51.020;5.304;2023-06-10T08:14:10;39.90;24.40
19214;DHT22;9741;51.020;5.304;2023-06-10T08:16:37;39.10;24.90
19214;DHT22;9741;51.020;5.304;2023-06-10T08:19:04;38.50;25.40
19214;DHT22;9741;51.020;5.304;2023-06-10T08:21:34;37.80;25.70
19214;DHT22;9741;51.020;5.304;2023-06-10T08:24:02;37.30;25.90
19214;DHT22;9741;51.020;5.304;2023-06-10T08:26:29;36.90;26.20
19214;DHT22;9741;51.020;5.304;2023-06-10T08:28:56;36.40;26.50
19214;DHT22;9741;51.020;5.304;2023-06-10T08:31:25;36.00;26.80
19214;DHT22;9741;51.020;5.304;2023-06-10T08:33:52;35.70;27.20
19214;DHT22;9741;51.020;5.304;2023-06-10T08:36:26;35.40;27.40
19214;DHT22;9741;51.020;5.304;2023-06-10T08:38:53;35.00;27.70
19214;DHT22;9741;51.020;5.304;2023-06-10T08:41:21;34.80;28.00
19214;DHT22;9741;51.020;5.304;2023-06-10T08:43:59;34.60;28.20
19214;DHT22;9741;51.020;5.304;2023-06-10T08:46:31;34.50;28.50
19214;DHT22;9741;51.020;5.304;2023-06-10T08:49:02;34.30;28.50
19214;DHT22;9741;51.020;5.304;2023-06-10T08:51:31;34.10;28.70
19214;DHT22;9741;51.020;5.304;2023-06-10T08:54:04;34.10;28.90
19214;DHT22;9741;51.020;5.304;2023-06-10T08:56:37;34.10;29.00
19214;DHT22;9741;51.020;5.304;2023-06-10T08:59:05;34.10;29.00
19214;DHT22;9741;51.020;5.304;2023-06-10T09:01:34;34.00;28.90
19214;DHT22;9741;51.020;5.304;2023-06-10T09:04:03;34.00;28.90
19214;DHT22;9741;51.020;5.304;2023-06-10T09:06:31;33.90;28.80
19214;DHT22;9741;51.020;5.304;2023-06-10T09:08:59;33.90;29.00
19214;DHT22;9741;51.020;5.304;2023-06-10T09:11:27;33.70;29.20
19214;DHT22;9741;51.020;5.304;2023-06-10T09:13:54;33.60;29.30
19214;DHT22;9741;51.020;5.304;2023-06-10T09:16:21;33.50;29.40
19214;DHT22;9741;51.020;5.304;2023-06-10T09:18:50;33.50;29.40
19214;DHT22;9741;51.020;5.304;2023-06-10T09:21:21;33.50;29.30
19214;DHT22;9741;51.020;5.304;2023-06-10T09:23:48;33.40;29.30
19214;DHT22;9741;51.020;5.304;2023-06-10T09:26:16;33.50;29.40
19214;DHT22;9741;51.020;5.304;2023-06-10T09:28:44;33.50;29.40
19214;DHT22;9741;51.020;5.304;2023-06-10T09:31:12;33.40;29.30
19214;DHT22;9741;51.020;5.304;2023-06-10T09:33:40;33.50;29.40
19214;DHT22;9741;51.020;5.304;2023-06-10T09:36:08;33.50;29.30
19214;DHT22;9741;51.020;5.304;2023-06-10T09:38:35;33.50;29.30
19214;DHT22;9741;51.020;5.304;2023-06-10T09:41:03;33.40;29.40
19214;DHT22;9741;51.020;5.304;2023-06-10T09:43:41;33.40;29.50
19214;DHT22;9741;51.020;5.304;2023-06-10T09:46:15;33.30;29.60
19214;DHT22;9741;51.020;5.304;2023-06-10T09:48:44;33.20;29.70
19214;DHT22;9741;51.020;5.304;2023-06-10T09:51:13;33.00;29.70
19214;DHT22;9741;51.020;5.304;2023-06-10T09:53:42;32.90;29.80
19214;DHT22;9741;51.020;5.304;2023-06-10T09:56:09;32.80;30.00
19214;DHT22;9741;51.020;5.304;2023-06-10T09:58:37;32.80;30.00
19214;DHT22;9741;51.020;5.304;2023-06-10T10:01:05;32.70;30.00
19214;DHT22;9741;51.020;5.304;2023-06-10T10:03:33;32.60;30.00
19214;DHT22;9741;51.020;5.304;2023-06-10T10:06:00;32.60;30.00
19214;DHT22;9741;51.020;5.304;2023-06-10T10:08:28;32.50;30.00
19214;DHT22;9741;51.020;5.304;2023-06-10T10:10:57;32.40;29.90
19214;DHT22;9741;51.020;5.304;2023-06-10T10:13:26;32.30;29.90
19214;DHT22;9741;51.020;5.304;2023-06-10T10:15:57;32.30;30.00
19214;DHT22;9741;51.020;5.304;2023-06-10T10:18:29;32.30;30.00
19214;DHT22;9741;51.020;5.304;2023-06-10T10:21:00;32.30;30.00
19214;DHT22;9741;51.020;5.304;2023-06-10T10:23:32;32.30;29.90
19214;DHT22;9741;51.020;5.304;2023-06-10T10:26:04;32.20;29.80
19214;DHT22;9741;51.020;5.304;2023-06-10T10:28:40;32.20;29.80
19214;DHT22;9741;51.020;5.304;2023-06-10T10:31:09;32.20;29.80
19214;DHT22;9741;51.020;5.304;2023-06-10T10:33:42;32.10;29.60
19214;DHT22;9741;51.020;5.304;2023-06-10T10:36:13;32.10;29.70
19214;DHT22;9741;51.020;5.304;2023-06-10T10:38:42;32.00;29.60
19214;DHT22;9741;51.020;5.304;2023-06-10T10:41:10;32.00;29.70
19214;DHT22;9741;51.020;5.304;2023-06-10T10:43:38;31.90;29.70
19214;DHT22;9741;51.020;5.304;2023-06-10T10:46:12;31.90;29.80
19214;DHT22;9741;51.020;5.304;2023-06-10T10:48:40;32.00;29.80
19214;DHT22;9741;51.020;5.304;2023-06-10T10:51:08;31.90;29.70
19214;DHT22;9741;51.020;5.304;2023-06-10T10:53:37;31.90;29.70
19214;DHT22;9741;51.020;5.304;2023-06-10T10:56:13;31.90;29.60
19214;DHT22;9741;51.020;5.304;2023-06-10T10:58:40;32.00;29.60
19214;DHT22;9741;51.020;5.304;2023-06-10T11:01:10;31.90;29.50
19214;DHT22;9741;51.020;5.304;2023-06-10T11:03:42;31.90;29.30
19214;DHT22;9741;51.020;5.304;2023-06-10T11:06:12;32.00;29.30
19214;DHT22;9741;51.020;5.304;2023-06-10T11:08:47;32.10;29.30
19214;DHT22;9741;51.020;5.304;2023-06-10T11:11:21;32.10;29.40
19214;DHT22;9741;51.020;5.304;2023-06-10T11:14:08;32.10;29.40
19214;DHT22;9741;51.020;5.304;2023-06-10T11:16:41;32.10;29.00
19214;DHT22;9741;51.020;5.304;2023-06-10T11:19:09;32.10;28.80
19214;DHT22;9741;51.020;5.304;2023-06-10T11:21:58;32.10;28.70
19214;DHT22;9741;51.020;5.304;2023-06-10T11:24:26;32.10;28.60
19214;DHT22;9741;51.020;5.304;2023-06-10T11:26:54;32.10;28.50
19214;DHT22;9741;51.020;5.304;2023-06-10T11:29:21;32.20;28.40
19214;DHT22;9741;51.020;5.304;2023-06-10T11:31:50;32.20;28.10
19214;DHT22;9741;51.020;5.304;2023-06-10T11:34:26;32.30;28.00
19214;DHT22;9741;51.020;5.304;2023-06-10T11:36:55;32.40;28.00
19214;DHT22;9741;51.020;5.304;2023-06-10T11:39:23;32.40;28.00
19214;DHT22;9741;51.020;5.304;2023-06-10T11:41:53;32.50;28.10
19214;DHT22;9741;51.020;5.304;2023-06-10T11:44:21;32.50;28.10
19214;DHT22;9741;51.020;5.304;2023-06-10T11:46:49;32.60;28.10
19214;DHT22;9741;51.020;5.304;2023-06-10T11:49:17;32.70;28.20
19214;DHT22;9741;51.020;5.304;2023-06-10T11:51:44;32.80;28.20
19214;DHT22;9741;51.020;5.304;2023-06-10T11:54:15;32.80;27.80
19214;DHT22;9741;51.020;5.304;2023-06-10T11:56:43;32.80;27.40
19214;DHT22;9741;51.020;5.304;2023-06-10T11:59:12;32.70;27.30
19214;DHT22;9741;51.020;5.304;2023-06-10T12:01:43;32.70;27.30
19214;DHT22;9741;51.020;5.304;2023-06-10T12:04:12;32.70;27.30
19214;DHT22;9741;51.020;5.304;2023-06-10T12:06:40;32.70;27.30
19214;DHT22;9741;51.020;5.304;2023-06-10T12:09:14;32.70;27.30
19214;DHT22;9741;51.020;5.304;2023-06-10T12:11:42;32.70;27.20
19214;DHT22;9741;51.020;5.304;2023-06-10T12:14:11;32.70;27.30
19214;DHT22;9741;51.020;5.304;2023-06-10T12:16:39;32.80;27.20
19214;DHT22;9741;51.020;5.304;2023-06-10T12:19:06;32.80;27.10
19214;DHT22;9741;51.020;5.304;2023-06-10T12:21:36;32.80;27.00
19214;DHT22;9741;51.020;5.304;2023-06-10T12:24:06;32.90;26.90
19214;DHT22;9741;51.020;5.304;2023-06-10T12:26:38;32.80;26.70
19214;DHT22;9741;51.020;5.304;2023-06-10T12:29:21;32.80;26.70
19214;DHT22;9741;51.020;5.304;2023-06-10T12:31:57;32.80;26.60
19214;DHT22;9741;51.020;5.304;2023-06-10T12:34:36;32.80;26.50
19214;DHT22;9741;51.020;5.304;2023-06-10T12:37:05;32.80;26.40
19214;DHT22;9741;51.020;5.304;2023-06-10T12:39:33;32.60;26.30
19214;DHT22;9741;51.020;5.304;2023-06-10T12:42:01;32.50;26.20
19214;DHT22;9741;51.020;5.304;2023-06-10T12:44:34;32.50;26.10
19214;DHT22;9741;51.020;5.304;2023-06-10T12:47:07;32.50;26.10
19214;DHT22;9741;51.020;5.304;2023-06-10T12:49:35;32.50;26.30
19214;DHT22;9741;51.020;5.304;2023-06-10T12:52:03;32.40;26.30
19214;DHT22;9741;51.020;5.304;2023-06-10T12:54:30;32.40;26.30
19214;DHT22;9741;51.020;5.304;2023-06-10T12:56:57;32.40;26.30
19214;DHT22;9741;51.020;5.304;2023-06-10T12:59:24;32.40;26.40
19214;DHT22;9741;51.020;5.304;2023-06-10T13:01:53;32.30;26.50
19214;DHT22;9741;51.020;5.304;2023-06-10T13:04:20;32.40;26.60
19214;DHT22;9741;51.020;5.304;2023-06-10T13:06:48;32.40;26.70
19214;DHT22;9741;51.020;5.304;2023-06-10T13:09:16;32.40;26.80
19214;DHT22;9741;51.020;5.304;2023-06-10T13:11:43;32.40;26.80
19214;DHT22;9741;51.020;5.304;2023-06-10T13:14:10;32.30;26.80
19214;DHT22;9741;51.020;5.304;2023-06-10T13:16:37;32.30;26.80
19214;DHT22;9741;51.020;5.304;2023-06-10T13:19:06;32.30;26.80
19214;DHT22;9741;51.020;5.304;2023-06-10T13:21:33;32.20;26.70
19214;DHT22;9741;51.020;5.304;2023-06-10T13:24:01;32.30;26.80
19214;DHT22;9741;51.020;5.304;2023-06-10T13:26:29;32.20;26.60
19214;DHT22;9741;51.020;5.304;2023-06-10T13:28:56;32.30;26.50
19214;DHT22;9741;51.020;5.304;2023-06-10T13:31:23;32.30;26.40
19214;DHT22;9741;51.020;5.304;2023-06-10T13:33:50;32.30;26.20
19214;DHT22;9741;51.020;5.304;2023-06-10T13:36:19;32.30;26.30
19214;DHT22;9741;51.020;5.304;2023-06-10T13:38:46;32.30;26.20
19214;DHT22;9741;51.020;5.304;2023-06-10T13:41:13;32.30;26.30
19214;DHT22;9741;51.020;5.304;2023-06-10T13:43:40;32.30;26.30
19214;DHT22;9741;51.020;5.304;2023-06-10T13:46:07;32.40;26.40
19214;DHT22;9741;51.020;5.304;2023-06-10T13:48:34;32.40;26.30
19214;DHT22;9741;51.020;5.304;2023-06-10T13:51:02;32.40;26.20
19214;DHT22;9741;51.020;5.304;2023-06-10T13:53:30;32.50;26.40
19214;DHT22;9741;51.020;5.304;2023-06-10T13:55:57;32.50;26.50
19214;DHT22;9741;51.020;5.304;2023-06-10T13:58:25;32.50;26.50
19214;DHT22;9741;51.020;5.304;2023-06-10T14:00:52;32.50;26.50
19214;DHT22;9741;51.020;5.304;2023-06-10T14:03:20;32.50;26.60
19214;DHT22;9741;51.020;5.304;2023-06-10T14:05:47;32.50;26.60
19214;DHT22;9741;51.020;5.304;2023-06-10T14:08:14;32.60;26.60
19214;DHT22;9741;51.020;5.304;2023-06-10T14:10:43;32.50;26.60
19214;DHT22;9741;51.020;5.304;2023-06-10T14:13:10;32.50;26.50
19214;DHT22;9741;51.020;5.304;2023-06-10T14:15:39;32.50;26.50
19214;DHT22;9741;51.020;5.304;2023-06-10T14:18:06;32.50;26.50
19214;DHT22;9741;51.020;5.304;2023-06-10T14:20:34;32.60;26.40
19214;DHT22;9741;51.020;5.304;2023-06-10T14:23:01;32.50;26.30
19214;DHT22;9741;51.020;5.304;2023-06-10T14:25:28;32.50;26.30
19214;DHT22;9741;51.020;5.304;2023-06-10T14:27:56;32.60;26.40
19214;DHT22;9741;51.020;5.304;2023-06-10T14:30:24;32.60;26.40
19214;DHT22;9741;51.020;5.304;2023-06-10T14:32:51;32.60;26.60
19214;DHT22;9741;51.020;5.304;2023-06-10T14:35:18;32.60;26.60
19214;DHT22;9741;51.020;5.304;2023-06-10T14:37:46;32.60;26.60
19214;DHT22;9741;51.020;5.304;2023-06-10T14:40:13;32.60;26.50
19214;DHT22;9741;51.020;5.304;2023-06-10T14:42:40;32.70;26.60
19214;DHT22;9741;51.020;5.304;2023-06-10T14:45:09;32.70;26.60
19214;DHT22;9741;51.020;5.304;2023-06-10T14:47:36;32.70;26.60
19214;DHT22;9741;51.020;5.304;2023-06-10T14:50:04;32.60;26.50
19214;DHT22;9741;51.020;5.304;2023-06-10T14:52:31;32.60;26.50
19214;DHT22;9741;51.020;5.304;2023-06-10T14:54:58;32.60;26.60
19214;DHT22;9741;51.020;5.304;2023-06-10T14:57:25;32.60;26.60
19214;DHT22;9741;51.020;5.304;2023-06-10T14:59:52;32.60;26.80
19214;DHT22;9741;51.020;5.304;2023-06-10T15:02:23;32.50;26.70
19214;DHT22;9741;51.020;5.304;2023-06-10T15:04:51;32.50;26.70
19214;DHT22;9741;51.020;5.304;2023-06-10T15:07:18;32.60;26.70
19214;DHT22;9741;51.020;5.304;2023-06-10T15:09:45;32.60;26.80
19214;DHT22;9741;51.020;5.304;2023-06-10T15:12:12;32.60;26.80
19214;DHT22;9741;51.020;5.304;2023-06-10T15:14:39;32.60;26.80
19214;DHT22;9741;51.020;5.304;2023-06-10T15:17:06;32.60;26.80
19214;DHT22;9741;51.020;5.304;2023-06-10T15:19:35;32.60;26.90
19214;DHT22;9741;51.020;5.304;2023-06-10T15:22:02;32.50;26.80
19214;DHT22;9741;51.020;5.304;2023-06-10T15:24:30;32.50;26.80
19214;DHT22;9741;51.020;5.304;2023-06-10T15:26:57;32.50;26.90
19214;DHT22;9741;51.020;5.304;2023-06-10T15:29:24;32.50;26.90
19214;DHT22;9741;51.020;5.304;2023-06-10T15:31:51;32.50;27.00
19214;DHT22;9741;51.020;5.304;2023-06-10T15:34:19;32.60;27.10
19214;DHT22;9741;51.020;5.304;2023-06-10T15:36:48;32.60;27.00
19214;DHT22;9741;51.020;5.304;2023-06-10T15:39:15;32.60;27.00
19214;DHT22;9741;51.020;5.304;2023-06-10T15:41:42;32.60;27.00
19214;DHT22;9741;51.020;5.304;2023-06-10T15:44:09;32.60;27.00
19214;DHT22;9741;51.020;5.304;2023-06-10T15:46:36;32.60;27.20
19214;DHT22;9741;51.020;5.304;2023-06-10T15:49:04;32.60;27.30
19214;DHT22;9741;51.020;5.304;2023-06-10T15:51:31;32.50;27.30